Time;durP1;ratioP1;P1;durP2;ratioP2;P2;SDS_P1;SDS_P2;PMS_P1;PMS_P2;Temp;Humidity;BMP_temperature;BMP_pressure;BME280_temperature;BME280_humidity;BME280_pressure;Samples;Min_cycle;Max_cycle;Signal;HPM_P1;HPM_P2
2023/10/04 00:00:30;;;;;;;5.97;2.10;;;;;;;-144.05;77.35;56957.16;5003872;28;20418;-87
2023/10/04 00:02:56;;;;;;;5.63;2.28;;;;;;;-144.05;77.58;56961.41;5008710;28;20026;-84
2023/10/04 00:05:24;;;;;;;6.20;2.00;;;16.10;99.90;;;-144.05;77.56;56938.03;5011566;28;20038;-84
2023/10/04 00:07:55;;;;;;;6.28;1.95;;;15.10;99.90;;;-144.05;77.63;56944.41;5001915;28;20452;-85
2023/10/04 00:10:23;;;;;;;8.57;2.42;;;;;;;-144.05;77.36;56923.19;5005346;28;20030;-82
2023/10/04 00:12:50;;;;;;;6.97;2.22;;;;;;;-144.05;77.42;56946.53;5006603;28;20128;-83
2023/10/04 00:15:20;;;;;;;7.85;2.65;;;;;;;-144.05;77.95;56938.03;5006552;28;20037;-83
2023/10/04 00:17:52;;;;;;;8.60;2.33;;;14.60;99.90;;;-144.05;77.73;56908.31;5004903;28;20061;-85
2023/10/04 00:20:20;;;;;;;6.85;2.35;;;;;;;-144.05;77.95;56923.19;5005012;28;20038;-83
2023/10/04 00:22:47;;;;;;;6.93;2.22;;;;;;;-144.05;78.13;56948.66;4999649;28;20053;-85
2023/10/04 00:25:21;;;;;;;6.65;2.42;;;15.20;99.90;;;-144.05;78.86;56935.91;5025273;28;20136;-83
2023/10/04 00:27:56;;;;;;;6.28;2.85;;;15.00;99.90;;;-144.05;78.10;56959.28;5005651;28;20026;-82
2023/10/04 00:30:28;;;;;;;7.80;2.38;;;;;;;-144.05;78.19;56942.28;5007882;28;20141;-85
2023/10/04 00:32:55;;;;;;;10.65;2.83;;;;;;;-144.05;78.14;56908.31;5006338;28;20073;-84
2023/10/04 00:35:23;;;;;;;8.25;2.28;;;12.40;99.90;;;-144.05;78.05;56921.06;5011667;28;20033;-82
2023/10/04 00:37:56;;;;;;;4.47;1.90;;;15.80;99.90;;;-144.05;78.65;56959.28;5014850;28;20033;-84
2023/10/04 00:40:32;;;;;;;11.75;2.88;;;14.90;99.90;;;-144.05;79.00;56931.66;5001200;28;20076;-82
2023/10/04 00:43:02;;;;;;;9.27;2.60;;;12.70;99.90;;;-144.05;79.02;56921.06;5027363;28;20045;-82
2023/10/04 00:45:30;;;;;;;6.78;2.15;;;14.90;99.90;;;-144.05;78.66;56933.78;4981969;28;20527;-82
2023/10/04 00:47:57;;;;;;;8.02;2.15;;;;;;;-144.05;78.87;56946.53;5003606;28;20051;-84
2023/10/04 00:50:31;;;;;;;8.60;2.20;;;12.50;99.90;;;-144.05;78.67;56950.78;5004478;28;20030;-83
2023/10/04 00:53:22;;;;;;;9.45;2.08;;;16.10;99.90;;;-144.05;79.16;56944.41;5002642;28;20040;-83
2023/10/04 00:55:53;;;;;;;6.35;2.15;;;;;;;-144.05;79.45;56959.28;5007110;28;20093;-84
2023/10/04 00:58:21;;;;;;;10.57;2.90;;;;;;;-144.05;78.97;56957.16;5014309;28;20018;-84
2023/10/04 01:00:48;;;;;;;5.68;2.13;;;;;;;-144.05;78.75;56942.28;5000046;28;20026;-85
2023/10/04 01:03:22;;;;;;;10.07;2.45;;;;;;;-144.05;79.16;56940.16;5002962;28;20046;-83
2023/10/04 01:05:51;;;;;;;7.32;2.28;;;;;;;-144.05;78.95;56959.28;5009956;28;20395;-84
2023/10/04 01:08:24;;;;;;;5.60;1.92;;;;;;;-144.05;79.39;56961.41;5003146;28;20029;-84
2023/10/04 01:10:54;;;;;;;8.60;1.98;;;;;;;-144.05;79.30;56931.66;5011699;28;20041;-83
2023/10/04 01:13:26;;;;;;;9.57;2.20;;;;;;;-144.05;79.62;56961.41;4999474;28;20026;-83
2023/10/04 01:15:57;;;;;;;9.85;2.55;;;;;;;-144.05;79.83;56927.41;5004384;28;20049;-83
2023/10/04 01:18:23;;;;;;;9.13;2.50;;;;;;;-144.05;79.44;56933.78;5010062;28;20053;-83
2023/10/04 01:20:51;;;;;;;7.85;2.13;;;;;;;-144.05;79.81;56914.69;4988596;28;20384;-84
2023/10/04 01:23:18;;;;;;;14.70;2.97;;;;;;;-144.05;80.52;56942.28;5003168;28;20506;-83
2023/10/04 01:25:47;;;;;;;8.43;2.22;;;15.10;99.90;;;-144.05;80.73;56963.53;5005816;28;20034;-83
2023/10/04 01:28:27;;;;;;;11.65;2.20;;;;;;;-144.05;80.20;56955.03;5006832;28;20030;-84
2023/10/04 01:30:55;;;;;;;5.45;1.95;;;;;;;-144.05;79.82;56967.78;5014400;28;20122;-84
2023/10/04 01:33:22;;;;;;;8.05;2.05;;;;;;;-144.05;79.76;56961.41;5010845;28;20505;-82
2023/10/04 01:35:58;;;;;;;8.00;2.58;;;;;;;-144.05;80.28;56929.53;4998843;28;20045;-84
2023/10/04 01:38:25;;;;;;;9.30;2.85;;;;;;;-144.05;80.19;56955.03;4998134;28;20030;-83
2023/10/04 01:40:54;;;;;;;7.68;2.15;;;12.30;99.90;;;-144.05;80.14;56948.66;5004653;28;20034;-84
2023/10/04 01:43:24;;;;;;;9.65;1.92;;;;;;;-144.05;80.17;56944.41;5008776;28;20031;-84
2023/10/04 01:46:00;;;;;;;9.52;2.42;;;15.50;99.90;;;-144.05;80.71;56910.44;4998296;28;20093;-84
2023/10/04 01:48:28;;;;;;;;;;;16.00;99.90;;;-144.05;80.99;56959.28;5008063;28;20515;-83
2023/10/04 01:50:55;;;;;;;10.55;2.20;;;;;;;-144.05;81.12;56940.16;4992343;28;19949;-83
2023/10/04 01:53:24;;;;;;;15.13;2.67;;;;;;;-144.05;80.93;56940.16;4999364;28;20102;-83
2023/10/04 01:55:50;;;;;;;6.55;1.90;;;;;;;-144.05;80.85;56950.78;4992500;28;20025;-83
2023/10/04 01:58:23;;;;;;;7.35;1.80;;;;;;;-144.05;81.11;56969.91;4999554;28;20027;-85
2023/10/04 02:00:54;;;;;;;10.40;2.50;;;;;;;-144.05;80.92;56940.16;5006781;28;20034;-85
2023/10/04 02:03:20;;;;;;;7.20;2.20;;;;;;;-144.05;80.61;56952.91;5016628;28;20189;-84
2023/10/04 02:05:50;;;;;;;8.70;1.90;;;9.50;99.90;;;-144.05;80.86;56969.91;5001763;28;20026;-85
2023/10/04 02:08:17;;;;;;;12.95;2.45;;;;;;;-144.05;81.17;56965.66;5001339;28;20552;-82
2023/10/04 02:10:46;;;;;;;11.32;2.60;;;;;;;-144.05;81.05;56910.44;5001469;28;20641;-86
2023/10/04 02:13:16;;;;;;;5.65;1.83;;;;;;;-144.05;80.76;56944.41;4997692;28;20054;-86
2023/10/04 02:15:51;;;;;;;6.35;2.67;;;;;;;-144.05;80.47;56929.53;5013403;28;20065;-85
2023/10/04 02:18:19;;;;;;;11.55;2.67;;;;;;;-144.05;80.71;56944.41;5009777;28;20034;-85
2023/10/04 02:20:47;;;;;;;7.90;1.83;;;;;;;-144.05;80.46;56963.53;4999147;28;20031;-83
2023/10/04 02:23:13;;;;;;;8.25;2.22;;;;;;;-144.05;80.59;56921.06;5006216;28;20072;-84
2023/10/04 02:25:40;;;;;;;7.05;2.33;;;;;;;-144.05;80.37;56942.28;5000985;28;20063;-84
2023/10/04 02:28:11;;;;;;;9.85;2.70;;;;;;;-144.05;80.99;56912.56;5005779;28;20104;-84
2023/10/04 02:30:40;;;;;;;9.60;2.20;;;15.60;99.90;;;-144.05;80.63;56957.16;5006752;28;20100;-82
2023/10/04 02:33:13;;;;;;;13.90;2.53;;;;;;;-144.05;80.27;56976.28;5004821;28;20140;-82
2023/10/04 02:35:44;;;;;;;10.18;2.70;;;16.30;99.90;;;-144.05;80.03;56910.44;5000231;28;20021;-83
2023/10/04 02:38:23;;;;;;;7.95;2.28;;;;;;;-144.05;79.81;56959.28;4999140;28;20085;-84
2023/10/04 02:40:50;;;;;;;12.15;2.00;;;;;;;-144.05;79.46;56950.78;4996101;28;20084;-84
2023/10/04 02:43:27;;;;;;;6.85;1.60;;;16.50;99.90;;;-144.05;80.00;56931.66;5008232;28;20042;-85
2023/10/04 02:45:54;;;;;;;14.43;2.50;;;;;;;-144.05;79.89;56957.16;4993348;28;20114;-85
2023/10/04 02:48:21;;;;;;;15.20;2.47;;;;;;;-144.05;80.02;56957.16;5002397;28;20504;-86
2023/10/04 02:50:48;;;;;;;7.30;1.83;;;10.40;99.90;;;-144.05;79.70;56933.78;5010768;28;20411;-85
2023/10/04 02:53:16;;;;;;;14.98;3.28;;;;;;;-144.05;80.22;56967.78;5021244;28;20035;-86
2023/10/04 02:55:44;;;;;;;14.25;3.05;;;;;;;-144.05;79.88;56931.66;5004535;28;20041;-82
2023/10/04 02:58:12;;;;;;;10.88;3.03;;;;;;;-144.05;80.32;56946.53;4996070;28;20022;-84
2023/10/04 03:00:44;;;;;;;10.23;2.20;;;;;;;-144.05;79.93;56948.66;5001632;28;20480;-84
2023/10/04 03:03:19;;;;;;;12.07;2.17;;;;;;;-144.05;79.83;56940.16;5000905;28;20506;-82
2023/10/04 03:05:46;;;;;;;6.70;1.73;;;;;;;-144.05;80.40;56946.53;5004768;28;20061;-83
2023/10/04 03:08:13;;;;;;;11.82;2.47;;;;;;;-144.05;80.50;56955.03;5008194;28;20042;-82
2023/10/04 03:10:40;;;;;;;8.77;2.45;;;;;;;-144.05;80.61;56969.91;5005456;28;20030;-83
2023/10/04 03:13:16;;;;;;;12.40;2.70;;;;;;;-144.05;80.20;56929.53;4997626;28;20104;-83
2023/10/04 03:15:47;;;;;;;8.68;2.35;;;;;;;-144.05;79.97;56957.16;5005235;28;20022;-84
2023/10/04 03:18:13;;;;;;;12.00;2.95;;;;;;;-144.05;79.94;56942.28;4999591;28;20030;-83
2023/10/04 03:20:54;;;;;;;13.43;2.50;;;;;;;-144.05;80.09;56948.66;5010669;28;20088;-84
2023/10/04 03:23:32;;;;;;;9.70;2.38;;;15.20;99.90;;;-144.05;80.16;56957.16;5015795;28;20490;-83
2023/10/04 03:26:00;;;;;;;10.55;2.47;;;;;;;-144.05;79.99;56950.78;5000248;28;20038;-81
2023/10/04 03:28:30;;;;;;;8.02;2.72;;;;;;;-144.05;80.24;56946.53;5006806;28;20041;-84
2023/10/04 03:30:57;;;;;;;10.25;2.47;;;;;;;-144.05;79.98;56946.53;5004236;28;20034;-84
2023/10/04 03:33:25;;;;;;;5.05;2.15;;;;;;;-144.05;80.34;56967.78;5006921;28;20483;-82
2023/10/04 03:35:53;;;;;;;10.07;2.30;;;;;;;-144.05;80.36;56972.03;4993004;28;20423;-84
2023/10/04 03:38:20;;;;;;;8.23;2.47;;;;;;;-144.05;80.56;56959.28;5001911;28;20070;-84
2023/10/04 03:40:46;;;;;;;9.13;2.55;;;;;;;-144.05;80.18;56944.41;5005345;28;20054;-82
2023/10/04 03:43:12;;;;;;;12.73;3.00;;;;;;;-144.05;80.48;56980.53;4997228;28;20117;-84
2023/10/04 03:45:41;;;;;;;7.25;2.30;;;14.00;99.90;;;-144.05;80.38;56923.19;5006128;28;20138;-82
2023/10/04 03:48:15;;;;;;;9.27;2.28;;;;;;;-144.05;80.49;56955.03;5010554;28;20357;-84
2023/10/04 03:50:51;;;;;;;7.35;2.85;;;15.20;99.90;;;-144.05;80.05;56925.28;5017565;28;20026;-83
2023/10/04 03:53:21;;;;;;;8.57;2.47;;;;;;;-144.05;79.52;56972.03;5013630;28;20037;-85
2023/10/04 03:55:48;;;;;;;9.45;2.70;;;;;;;-144.05;79.91;56967.78;5001807;28;20026;-85
2023/10/04 03:58:16;;;;;;;8.20;2.58;;;13.80;99.90;;;-144.05;79.99;56927.41;5008951;28;20034;-84
2023/10/04 04:00:43;;;;;;;11.15;2.60;;;;;;;-144.05;79.69;56961.41;5000222;28;20040;-83
2023/10/04 04:03:10;;;;;;;13.43;2.83;;;;;;;-144.05;79.90;56933.78;5000035;28;20026;-84
2023/10/04 04:05:41;;;;;;;6.85;2.83;;;;;;;-144.05;80.07;56940.16;5024102;28;20060;-83
2023/10/04 04:08:09;;;;;;;12.02;2.25;;;;;;;-144.05;80.52;56961.41;5006228;28;20508;-82
2023/10/04 04:10:36;;;;;;;9.50;2.90;;;;;;;-144.05;80.46;56946.53;5000816;28;20133;-85
2023/10/04 04:13:03;;;;;;;10.43;2.17;;;;;;;-144.05;81.04;56961.41;5003926;28;20458;-84
2023/10/04 04:15:33;;;;;;;14.00;3.05;;;;;;;-144.05;80.73;56950.78;4997091;28;20022;-82
2023/10/04 04:18:03;;;;;;;5.25;2.10;;;;;;;-144.05;80.83;56961.41;4996396;28;20158;-83
2023/10/04 04:20:31;;;;;;;4.93;2.15;;;;;;;-144.05;80.97;56899.81;5012159;28;20026;-84
2023/10/04 04:22:57;;;;;;;11.75;2.45;;;;;;;-144.05;81.22;56927.41;5005694;28;20036;-83
2023/10/04 04:25:26;;;;;;;15.30;3.30;;;15.60;99.90;;;-144.05;81.17;56946.53;5005645;28;20034;-82
2023/10/04 04:27:53;;;;;;;16.35;2.78;;;;;;;-144.05;80.62;56933.78;5010201;28;20046;-83
2023/10/04 04:30:34;;;;;;;11.77;2.70;;;14.90;99.90;;;-144.05;80.65;56957.16;5013385;28;20029;-85
2023/10/04 04:33:07;;;;;;;12.80;2.28;;;;;;;-144.05;80.99;56961.41;5000183;28;20031;-85
2023/10/04 04:35:47;;;;;;;13.40;2.83;;;16.00;99.90;;;-144.05;81.15;56933.78;4996061;28;20042;-84
2023/10/04 04:38:25;;;;;;;7.80;2.83;;;;;;;-144.05;81.53;56957.16;4997687;28;20472;-86
2023/10/04 04:40:56;;;;;;;11.80;2.80;;;;;;;-144.05;81.52;56961.41;4995984;28;20041;-83
2023/10/04 04:43:36;;;;;;;9.00;2.97;;;;;;;-144.05;81.64;56969.91;5011587;28;20056;-83
2023/10/04 04:46:09;;;;;;;11.05;2.47;;;14.40;99.90;;;-144.05;81.42;56929.53;4989661;28;20041;-82
2023/10/04 04:48:36;;;;;;;15.93;3.03;;;;;;;-144.05;81.37;56980.53;5007059;28;20033;-85
2023/10/04 04:51:15;;;;;;;6.88;2.03;;;;;;;-144.05;81.41;56923.19;4996752;28;20033;-87
2023/10/04 04:53:45;;;;;;;7.80;2.97;;;9.90;99.90;;;-144.05;81.79;56935.91;5020675;28;20507;-82
2023/10/04 04:56:13;;;;;;;11.50;2.75;;;15.10;99.90;;;-144.05;82.34;56935.91;5016557;28;20026;-85
2023/10/04 04:58:44;;;;;;;8.55;2.42;;;;;;;-144.05;81.94;56899.81;5010888;28;20029;-82
2023/10/04 05:01:11;;;;;;;15.00;3.53;;;11.70;99.90;;;-144.05;81.89;56944.41;4995911;28;20032;-83
2023/10/04 05:03:42;;;;;;;8.98;2.58;;;;;;;-144.05;81.74;56967.78;5000681;28;20512;-83
2023/10/04 05:06:30;;;;;;;10.32;2.28;;;;;;;-144.05;81.70;56955.03;5004344;28;20049;-85
2023/10/04 05:08:56;;;;;;;11.70;2.80;;;;;;;-144.05;82.13;56946.53;5011365;28;20038;-84
2023/10/04 05:11:26;;;;;;;7.30;2.58;;;;;;;-144.05;82.58;56940.16;5016491;28;20044;-87
2023/10/04 05:13:55;;;;;;;9.90;2.50;;;;;;;-144.05;82.54;56961.41;4993212;28;20109;-85
2023/10/04 05:16:21;;;;;;;12.20;2.63;;;;;;;-144.05;82.46;56942.28;5008773;28;20057;-83
2023/10/04 05:18:48;;;;;;;12.32;2.97;;;;;;;-144.05;82.35;56918.94;5005343;28;20034;-86
2023/10/04 05:21:15;;;;;;;14.27;3.47;;;;;;;-144.05;82.76;56944.41;4997595;28;20494;-85
2023/10/04 05:23:41;;;;;;;11.00;2.72;;;;;;;-144.05;83.02;56969.91;5008867;28;20116;-85
2023/10/04 05:26:12;;;;;;;12.15;2.67;;;;;;;-144.05;83.26;56946.53;5009178;28;20057;-85
2023/10/04 05:28:39;;;;;;;12.07;2.78;;;;;;;-144.05;82.77;56978.41;5003554;28;20030;-88
2023/10/04 05:31:06;;;;;;;10.82;3.00;;;;;;;-144.05;83.00;56946.53;5005400;28;20033;-85
2023/10/04 05:33:35;;;;;;;9.20;2.65;;;;;;;-144.05;82.79;56950.78;5017333;28;20038;-83
2023/10/04 05:36:02;;;;;;;14.52;2.80;;;;;;;-144.05;83.02;56927.41;5005840;28;20076;-86
2023/10/04 05:38:29;;;;;;;17.48;3.53;;;;;;;-144.05;83.21;56950.78;5010273;28;20053;-85
2023/10/04 05:40:57;;;;;;;10.45;2.97;;;;;;;-144.05;83.74;56961.41;5008275;28;20081;-85
2023/10/04 05:43:23;;;;;;;10.00;3.83;;;;;;;-144.05;83.86;56955.03;5001124;28;20026;-86
2023/10/04 05:45:50;;;;;;;13.02;3.72;;;;;;;-144.05;83.66;56944.41;4991580;28;20034;-86
2023/10/04 05:48:19;;;;;;;10.05;3.50;;;;;;;-144.05;83.72;56969.91;4999565;28;20094;-85
2023/10/04 05:50:49;;;;;;;15.80;4.68;;;;;;;-144.05;83.49;56972.03;5010353;28;20037;-84
2023/10/04 05:53:19;;;;;;;14.95;3.55;;;;;;;-144.05;83.73;56959.28;5001669;28;20499;-84
2023/10/04 05:55:46;;;;;;;18.00;3.85;;;;;;;-144.05;83.79;56944.41;5006443;28;20069;-86
2023/10/04 05:58:13;;;;;;;11.90;3.40;;;;;;;-144.05;83.40;56912.56;5008073;28;20034;-83
2023/10/04 06:00:42;;;;;;;13.30;3.25;;;;;;;-144.05;83.99;56925.28;4998139;28;20034;-82
2023/10/04 06:03:13;;;;;;;12.73;3.20;;;14.00;99.90;;;-144.05;83.98;56916.81;5001294;28;20522;-84
2023/10/04 06:05:43;;;;;;;18.35;3.78;;;15.30;99.90;;;-144.05;83.29;56929.53;5002534;28;20037;-84
2023/10/04 06:08:18;;;;;;;10.43;3.30;;;;;;;-144.05;82.68;56912.56;5008818;28;20035;-85
2023/10/04 06:10:53;;;;;;;14.50;3.38;;;;;;;-144.05;82.47;56955.03;5002353;28;20090;-84
2023/10/04 06:13:22;;;;;;;14.75;3.35;;;;;;;-144.05;82.50;56946.53;5002792;28;20089;-84
2023/10/04 06:15:53;;;;;;;11.50;3.58;;;15.10;99.90;;;-144.05;82.34;56948.66;5009365;28;20022;-84
2023/10/04 06:18:19;;;;;;;12.65;3.90;;;;;;;-144.05;82.08;56938.03;5017938;28;20028;-86
2023/10/04 06:20:46;;;;;;;11.23;3.60;;;;;;;-144.05;82.33;56925.28;5001126;28;20037;-84
2023/10/04 06:23:17;;;;;;;12.07;3.47;;;12.40;99.90;;;-144.05;81.76;56918.94;5009807;28;20029;-85
2023/10/04 06:25:52;;;;;;;12.95;3.70;;;14.90;99.90;;;-144.05;82.05;56940.16;5017891;28;20026;-85
2023/10/04 06:28:19;;;;;;;8.02;3.60;;;;;;;-144.05;81.52;56938.03;5019020;28;20026;-86
2023/10/04 06:30:48;;;;;;;11.55;3.30;;;;;;;-144.05;81.22;56929.53;5020035;28;20053;-88
2023/10/04 06:33:15;;;;;;;12.48;4.60;;;;;;;-144.05;81.32;56935.91;5020563;28;20160;-85
2023/10/04 06:35:44;;;;;;;16.63;3.10;;;;;;;-144.05;80.81;56940.16;5012439;28;20480;-85
2023/10/04 06:38:13;;;;;;;10.02;3.75;;;14.70;99.90;;;-144.05;80.69;56959.28;5023213;28;20038;-87
2023/10/04 06:40:42;;;;;;;10.95;4.07;;;15.80;99.90;;;-144.05;80.68;56965.66;5023287;28;20114;-86
2023/10/04 06:43:09;;;;;;;10.20;3.47;;;13.80;99.90;;;-144.05;80.37;56923.19;5036186;28;20034;-85
2023/10/04 06:45:37;;;;;;;11.45;3.42;;;14.60;99.90;;;-144.05;80.17;56952.91;5012738;28;20038;-83
2023/10/04 06:48:05;;;;;;;12.15;3.58;;;;;;;-144.05;80.17;56916.81;5020506;28;20035;-85
2023/10/04 06:50:38;;;;;;;8.35;3.38;;;;;;;-144.05;79.74;56935.91;5012282;28;20038;-86
2023/10/04 06:53:05;;;;;;;13.43;3.70;;;;;;;-144.05;78.90;56935.91;5019617;28;20038;-88
2023/10/04 06:55:34;;;;;;;12.77;3.25;;;14.90;99.90;;;-144.05;78.03;56967.78;5036169;28;20097;-83
2023/10/04 06:58:01;;;;;;;14.45;3.83;;;;;;;-144.05;77.43;56959.28;5022906;28;20022;-81
2023/10/04 07:00:30;;;;;;;14.20;3.97;;;;;;;-144.05;76.42;56931.66;5018970;28;20113;-83
2023/10/04 07:02:59;;;;;;;8.50;3.30;;;11.90;99.90;;;-144.05;75.52;56923.19;5014406;28;20038;-85
2023/10/04 07:05:32;;;;;;;11.93;3.03;;;15.00;99.90;;;-144.05;75.05;56967.78;5020097;28;20110;-83
2023/10/04 07:07:59;;;;;;;12.15;3.40;;;14.60;99.90;;;-144.05;75.68;56952.91;5010387;28;20033;-87
2023/10/04 07:10:28;;;;;;;10.13;3.90;;;15.50;99.90;;;-144.05;74.89;56929.53;5008752;28;20033;-84
2023/10/04 07:12:58;;;;;;;11.20;3.38;;;16.20;99.90;;;-144.05;74.46;56946.53;4999371;28;20022;-86
2023/10/04 07:15:28;;;;;;;14.95;2.90;;;15.00;99.90;;;-144.05;74.34;56952.91;5018486;28;20026;-83
2023/10/04 07:17:55;;;;;;;10.75;3.58;;;;;;;-144.05;73.58;56950.78;5002269;28;20054;-84
2023/10/04 07:20:24;;;;;;;11.65;3.22;;;;;;;-144.05;73.94;56940.16;5034134;28;20121;-85
2023/10/04 07:22:58;;;;;;;12.27;3.25;;;14.30;99.90;;;-144.05;73.38;56955.03;4997658;28;20029;-83
2023/10/04 07:25:30;;;;;;;10.18;3.05;;;;;;;-144.05;73.40;56938.03;5020873;28;20029;-83
2023/10/04 07:28:03;;;;;;;12.25;3.40;;;14.40;99.90;;;-144.05;72.47;56961.41;5001653;28;20033;-85
2023/10/04 07:30:33;;;;;;;9.55;3.42;;;13.90;99.90;;;-144.05;72.56;56933.78;5009248;28;20030;-85
2023/10/04 07:33:01;;;;;;;11.25;3.40;;;;;;;-144.05;71.84;56944.41;5012851;28;20055;-87
2023/10/04 07:35:28;;;;;;;7.30;3.22;;;15.00;99.90;;;-144.05;71.38;56952.91;5018072;28;20021;-82
2023/10/04 07:37:58;;;;;;;10.90;3.60;;;15.10;99.90;;;-144.05;71.00;56955.03;5005332;28;20018;-84
2023/10/04 07:40:27;;;;;;;10.40;3.08;;;14.40;99.90;;;-144.05;70.74;56950.78;5020228;28;20040;-87
2023/10/04 07:42:54;;;;;;;15.13;3.50;;;;;;;-144.05;70.56;56916.81;5008391;28;20022;-85
2023/10/04 07:45:27;;;;;;;13.38;3.13;;;14.50;99.90;;;-144.05;70.58;56933.78;5014619;28;20079;-86
2023/10/04 07:47:56;;;;;;;7.25;3.10;;;;;;;-144.05;70.53;56944.41;5014761;28;20109;-83
2023/10/04 07:50:22;;;;;;;11.35;3.60;;;;;;;-144.05;69.54;56955.03;5023972;28;20029;-84
2023/10/04 07:52:51;;;;;;;11.27;3.75;;;;;;;-144.05;69.01;56950.78;5008493;28;20496;-86
2023/10/04 07:55:18;;;;;;;11.20;4.22;;;;;;;-144.05;68.32;56946.53;5015494;28;20045;-88
2023/10/04 07:57:58;;;;;;;19.55;3.35;;;17.10;99.90;;;-144.05;69.57;56955.03;4999842;28;20127;-87
2023/10/04 08:00:25;;;;;;;10.52;3.15;;;;;;;-144.05;68.60;56950.78;5015181;28;20098;-84
2023/10/04 08:02:51;;;;;;;10.77;3.33;;;14.40;99.90;;;-144.05;67.95;56931.66;5020144;28;20079;-83
2023/10/04 08:05:25;;;;;;;11.65;3.53;;;17.60;99.90;;;-144.05;66.85;56942.28;5018513;28;20033;-83
2023/10/04 08:07:56;;;;;;;13.18;3.38;;;14.80;99.90;;;-144.05;67.64;56950.78;5003456;28;20053;-85
2023/10/04 08:10:27;;;;;;;13.50;2.90;;;15.90;99.90;;;-144.05;66.98;56950.78;5017921;28;20133;-83
2023/10/04 08:12:59;;;;;;;17.73;3.30;;;16.90;99.90;;;-144.05;67.10;56952.91;4992656;28;20338;-84
2023/10/04 08:15:28;;;;;;;13.07;3.10;;;;;;;-144.05;66.69;56923.19;5015782;28;20498;-83
2023/10/04 08:17:56;;;;;;;15.07;3.55;;;15.70;99.90;;;-144.05;67.12;56957.16;5015426;28;20019;-85
2023/10/04 08:20:32;;;;;;;9.38;3.28;;;16.10;99.90;;;-144.05;65.46;56950.78;5002070;28;20038;-86
2023/10/04 08:23:05;;;;;;;8.32;3.00;;;;;;;-144.05;65.56;56938.03;5018953;28;20192;-84
2023/10/04 08:25:32;;;;;;;10.93;3.28;;;;;;;-144.05;64.53;56961.41;5009621;28;20050;-83
2023/10/04 08:27:58;;;;;;;17.67;3.28;;;;;;;-144.05;64.35;56948.66;5011593;28;20030;-84
2023/10/04 08:30:25;;;;;;;11.43;3.13;;;;;;;-144.05;64.27;56959.28;5019687;28;20029;-84
2023/10/04 08:32:53;;;;;;;11.25;3.63;;;;;;;-144.05;63.98;56948.66;5019971;28;20046;-84
2023/10/04 08:35:24;;;;;;;8.95;3.30;;;16.70;99.90;;;-144.05;63.35;56935.91;5016988;28;20026;-85
2023/10/04 08:37:57;;;;;;;8.38;2.88;;;16.50;99.90;;;-144.05;63.90;56955.03;5011713;28;20054;-87
2023/10/04 08:40:27;;;;;;;12.90;3.40;;;16.60;99.90;;;-144.05;63.09;56955.03;5013272;28;20026;-87
2023/10/04 08:42:55;;;;;;;13.02;3.50;;;;;;;-144.05;62.60;56969.91;4998689;28;20026;-85
2023/10/04 08:45:24;;;;;;;10.43;2.58;;;;;;;-144.05;62.48;56959.28;5012603;28;20060;-83
2023/10/04 08:47:57;;;;;;;9.63;3.13;;;17.00;99.90;;;-144.05;61.79;56948.66;5005755;28;20025;-84
2023/10/04 08:50:54;;;;;;;12.07;2.80;;;17.20;99.90;;;-144.05;60.24;56967.78;5020675;28;20033;-82
2023/10/04 08:53:42;;;;;;;14.30;3.08;;;17.30;99.90;;;-144.05;61.16;56942.28;5025133;28;20048;-84
2023/10/04 08:56:17;;;;;;;9.93;3.15;;;17.00;99.90;;;-144.05;61.20;56925.28;4999638;28;20037;-85
2023/10/04 08:58:46;;;;;;;14.60;3.47;;;;;;;-144.05;61.62;56955.03;5010211;28;20033;-87
2023/10/04 09:01:15;;;;;;;12.27;3.10;;;16.70;99.90;;;-144.05;62.33;56929.53;5019604;28;20026;-87
2023/10/04 09:03:44;;;;;;;12.68;3.33;;;17.00;99.90;;;-144.05;61.21;56931.66;5014128;28;20057;-85
2023/10/04 09:06:14;;;;;;;11.05;2.90;;;17.30;99.90;;;-144.05;60.87;56961.41;5018626;28;20057;-87
2023/10/04 09:08:41;;;;;;;14.93;3.17;;;;;;;-144.05;60.71;56961.41;5005350;28;20026;-84
2023/10/04 09:11:18;;;;;;;10.15;3.00;;;17.80;99.90;;;-144.05;60.57;56989.00;5011579;28;20057;-85
2023/10/04 09:13:49;;;;;;;9.52;3.15;;;;;;;-144.05;60.53;56961.41;5010717;28;20067;-86
2023/10/04 09:16:29;;;;;;;12.48;3.58;;;18.00;99.90;;;-144.05;59.17;56933.78;5016796;28;20060;-87
2023/10/04 09:19:18;;;;;;;12.20;3.00;;;18.10;99.90;;;-144.05;58.14;56963.53;5008965;28;20072;-86
2023/10/04 09:21:46;;;;;;;11.00;3.42;;;;;;;-144.05;58.95;56976.28;5016754;28;20061;-87
2023/10/04 09:24:16;;;;;;;13.20;3.58;;;17.90;99.90;;;-144.05;59.99;56967.78;5016416;28;20067;-86
2023/10/04 09:26:56;;;;;;;8.82;2.90;;;17.90;99.90;;;-144.05;58.56;56959.28;5019816;28;20164;-82
2023/10/04 09:29:33;;;;;;;14.20;3.20;;;17.70;99.90;;;-144.05;58.94;56959.28;5017461;28;20137;-85
2023/10/04 09:32:00;;;;;;;9.15;3.00;;;;;;;-144.05;59.74;56942.28;5019839;28;20503;-86
2023/10/04 09:34:28;;;;;;;12.15;3.10;;;;;;;-144.05;59.90;56959.28;5018496;28;20053;-84
2023/10/04 09:36:55;;;;;;;7.75;2.67;;;;;;;-144.05;61.52;56959.28;5016504;28;20017;-85
2023/10/04 09:39:31;;;;;;;7.65;2.90;;;17.40;99.90;;;-144.05;61.45;56955.03;5008570;28;20038;-84
2023/10/04 09:42:02;;;;;;;13.93;3.10;;;17.40;99.90;;;-144.05;60.89;56921.06;4999477;28;20056;-85
2023/10/04 09:44:31;;;;;;;12.02;2.78;;;18.50;99.90;;;-144.05;60.63;56959.28;5015063;28;20030;-84
2023/10/04 09:47:03;;;;;;;11.95;2.67;;;;;;;-144.05;62.37;56952.91;5013168;28;20038;-85
2023/10/04 09:49:33;;;;;;;7.78;3.05;;;17.80;99.90;;;-144.05;62.25;56967.78;5018438;28;20033;-86
2023/10/04 09:52:07;;;;;;;14.10;3.00;;;17.30;99.90;;;-144.05;60.95;56940.16;5010950;28;20103;-85
2023/10/04 09:54:35;;;;;;;11.27;3.23;;;;;;;-144.05;60.44;56963.53;5017184;28;20084;-86
2023/10/04 09:57:08;;;;;;;12.90;3.47;;;18.40;99.90;;;-144.05;60.61;56967.78;5010758;28;20026;-85
2023/10/04 09:59:39;;;;;;;12.48;2.70;;;18.20;99.90;;;-144.05;59.75;56972.03;5015179;28;20113;-84
2023/10/04 10:02:10;;;;;;;8.18;2.75;;;19.40;99.90;;;-144.05;58.90;56940.16;5017672;28;20049;-83
2023/10/04 10:04:49;;;;;;;13.63;2.30;;;15.70;99.90;;;-144.05;58.41;56980.53;5017098;28;20113;-82
2023/10/04 10:07:21;;;;;;;11.93;2.60;;;19.00;99.90;;;-144.05;58.69;56946.53;5016056;28;20109;-86
2023/10/04 10:10:12;;;;;;;13.57;3.33;;;19.80;99.90;;;-144.05;59.37;56984.78;5010856;28;20165;-84
2023/10/04 10:12:43;;;;;;;11.60;2.72;;;19.90;99.90;;;-144.05;59.04;56963.53;5016839;28;20034;-84
2023/10/04 10:15:11;;;;;;;6.95;2.67;;;;;;;-144.05;59.02;56938.03;5004416;28;20037;-86
2023/10/04 10:17:42;;;;;;;10.27;2.80;;;;;;;-144.05;59.48;56978.41;5012821;28;20048;-90
2023/10/04 10:20:11;;;;;;;10.93;3.28;;;19.50;99.90;;;-144.05;59.43;56944.41;5019224;28;20026;-89
2023/10/04 10:22:59;;;;;;;8.88;2.97;;;15.60;99.90;;;-144.05;58.39;56969.91;5018818;28;20030;-85
2023/10/04 10:25:32;;;;;;;17.00;3.17;;;;;;;-144.05;58.22;56967.78;5017540;28;20116;-88
2023/10/04 10:28:04;;;;;;;11.52;3.10;;;;;;;-144.05;59.05;56942.28;5020858;28;20026;-86
2023/10/04 10:30:34;;;;;;;13.70;3.13;;;;;;;-144.05;59.79;56931.66;5017033;28;20025;-85
2023/10/04 10:33:02;;;;;;;8.98;3.10;;;;;;;-144.05;58.70;56961.41;5014195;28;20045;-83
2023/10/04 10:35:53;;;;;;;13.43;3.10;;;;;;;-144.05;59.87;56972.03;5018708;28;20077;-85
2023/10/04 10:38:47;;;;;;;9.45;2.42;;;19.10;99.90;;;-144.05;60.62;56974.16;5018040;28;20083;-83
2023/10/04 10:41:28;;;;;;;7.95;2.60;;;19.50;99.90;;;-144.05;59.98;56950.78;5006801;28;20499;-85
2023/10/04 10:44:24;;;;;;;9.73;3.03;;;;;;;-144.05;59.48;56925.28;5010975;28;20027;-88
2023/10/04 10:46:58;;;;;;;11.52;2.65;;;;;;;-144.05;58.66;56969.91;5025195;28;20069;-86
2023/10/04 10:49:52;;;;;;;10.60;3.85;;;19.20;99.90;;;-144.05;59.18;56967.78;5018116;28;20034;-87
2023/10/04 10:52:34;;;;;;;9.95;2.45;;;;;;;-144.05;58.93;56948.66;5021499;28;20057;-87
2023/10/04 10:55:05;;;;;;;13.23;2.55;;;;;;;-144.05;58.25;56991.13;5011370;28;20030;-86
2023/10/04 10:57:36;;;;;;;12.45;2.58;;;;;;;-144.05;57.78;56978.41;5018318;28;20053;-86
2023/10/04 11:02:48;;;;;;;11.15;2.40;;;;;;;-144.05;58.10;56963.53;5014398;28;20416;-86